createdAt,value
2023-08-29T00:00:18.310Z,0.47
2023-08-29T00:02:46.246Z,0.73
2023-08-29T00:05:14.320Z,0.43
2023-08-29T00:07:43.923Z,0.55
2023-08-29T00:10:12.630Z,0.60
2023-08-29T00:12:42.303Z,0.30
2023-08-29T00:15:11.828Z,0.20
2023-08-29T00:17:40.417Z,0.30
2023-08-29T00:20:11.467Z,0.30
2023-08-29T00:22:39.449Z,0.40
2023-08-29T00:25:09.841Z,0.45
2023-08-29T00:27:37.744Z,0.50
2023-08-29T00:30:06.631Z,0.30
2023-08-29T00:32:34.721Z,0.20
2023-08-29T00:35:02.820Z,0.45
2023-08-29T00:37:30.892Z,0.82
2023-08-29T00:39:58.800Z,0.15
2023-08-29T00:42:28.076Z,0.30
2023-08-29T00:44:55.987Z,0.20
2023-08-29T00:47:24.034Z,0.20
2023-08-29T00:49:52.586Z,0.40
2023-08-29T00:52:21.113Z,0.20
2023-08-29T00:54:49.415Z,0.50
2023-08-29T00:57:17.361Z,0.20
2023-08-29T00:59:46.768Z,0.20
2023-08-29T01:02:14.700Z,0.20
2023-08-29T01:04:42.640Z,0.22
2023-08-29T01:07:10.725Z,0.30
2023-08-29T01:09:40.626Z,0.20
2023-08-29T01:12:17.379Z,0.20
2023-08-29T01:14:53.330Z,0.20
2023-08-29T01:17:28.086Z,0.60
2023-08-29T01:19:56.970Z,0.47
2023-08-29T01:22:42.329Z,0.20
2023-08-29T01:25:18.106Z,0.20
2023-08-29T01:27:48.478Z,0.20
2023-08-29T01:30:17.172Z,0.28
2023-08-29T01:32:46.886Z,0.10
2023-08-29T01:35:16.544Z,0.30
2023-08-29T01:37:44.478Z,0.20
2023-08-29T01:40:13.007Z,0.50
2023-08-29T01:42:40.910Z,0.63
2023-08-29T01:45:11.345Z,0.22
2023-08-29T01:47:39.415Z,0.50
2023-08-29T01:50:09.499Z,0.35
2023-08-29T01:52:37.766Z,0.30
2023-08-29T01:55:06.320Z,0.30
2023-08-29T01:57:36.872Z,0.30
2023-08-29T02:00:06.420Z,0.20
2023-08-29T02:02:35.757Z,0.20
2023-08-29T02:05:03.699Z,0.50
2023-08-29T02:07:31.652Z,0.20
2023-08-29T02:09:59.599Z,0.63
2023-08-29T02:12:27.557Z,0.30
2023-08-29T02:14:55.471Z,0.40
2023-08-29T02:17:23.377Z,0.30
2023-08-29T02:19:52.772Z,0.30
2023-08-29T02:22:20.720Z,0.30
2023-08-29T02:24:49.442Z,0.20
2023-08-29T02:27:17.369Z,0.20
2023-08-29T02:29:45.292Z,0.22
2023-08-29T02:32:13.190Z,0.20
2023-08-29T02:34:41.124Z,0.30
2023-08-29T02:37:10.478Z,0.50
2023-08-29T02:39:38.402Z,0.30
2023-08-29T02:42:06.794Z,0.30
2023-08-29T02:44:34.692Z,0.30
2023-08-29T02:47:02.632Z,0.20
2023-08-29T02:49:32.157Z,0.25
2023-08-29T02:52:00.064Z,0.30
2023-08-29T02:54:29.443Z,0.20
2023-08-29T02:56:58.056Z,0.28
2023-08-29T02:59:27.412Z,1.20
2023-08-29T03:01:55.370Z,0.20
2023-08-29T03:04:23.317Z,0.10
2023-08-29T03:06:53.292Z,0.20
2023-08-29T03:09:21.307Z,0.20
2023-08-29T03:11:50.682Z,0.20
2023-08-29T03:14:18.584Z,0.20
2023-08-29T03:16:46.743Z,0.40
2023-08-29T03:19:14.804Z,0.20
2023-08-29T03:21:42.769Z,0.20
2023-08-29T03:24:10.716Z,0.30
2023-08-29T03:26:38.617Z,0.20
2023-08-29T03:29:07.906Z,0.40
2023-08-29T03:31:36.015Z,0.20
2023-08-29T03:34:04.333Z,0.20
2023-08-29T03:36:32.666Z,0.30
2023-08-29T03:39:00.606Z,0.32
2023-08-29T03:41:28.601Z,0.20
2023-08-29T03:43:56.546Z,0.20
2023-08-29T03:46:25.854Z,0.73
2023-08-29T03:48:54.059Z,1.42
2023-08-29T03:51:21.982Z,0.50
2023-08-29T03:53:49.958Z,0.68
2023-08-29T03:56:19.177Z,0.30
2023-08-29T03:58:47.752Z,0.20
2023-08-29T04:01:15.679Z,0.45
2023-08-29T04:03:45.174Z,0.32
2023-08-29T04:06:13.194Z,0.50
2023-08-29T04:08:41.104Z,0.25
2023-08-29T04:11:09.059Z,0.22
2023-08-29T04:13:37.215Z,0.65
2023-08-29T04:16:05.456Z,0.20
2023-08-29T04:18:34.424Z,0.40
2023-08-29T04:21:03.840Z,0.20
2023-08-29T04:23:31.776Z,0.30
2023-08-29T04:26:01.509Z,0.20
2023-08-29T04:28:29.487Z,0.30
2023-08-29T04:30:57.704Z,0.30
2023-08-29T04:33:26.624Z,0.20
2023-08-29T04:35:55.836Z,0.20
2023-08-29T04:38:25.156Z,0.22
2023-08-29T04:40:55.071Z,0.50
2023-08-29T04:43:23.017Z,0.20
2023-08-29T04:45:52.222Z,0.20
2023-08-29T04:48:20.184Z,0.30
2023-08-29T04:50:48.510Z,0.20
2023-08-29T04:53:16.436Z,0.30
2023-08-29T04:55:45.707Z,0.20
2023-08-29T04:58:13.943Z,0.20
2023-08-29T05:00:41.889Z,0.30
2023-08-29T05:03:09.967Z,0.20
2023-08-29T05:05:39.159Z,0.38
2023-08-29T05:08:08.270Z,0.20
2023-08-29T05:10:36.410Z,0.40
2023-08-29T05:13:06.114Z,0.20
2023-08-29T05:15:34.320Z,0.30
2023-08-29T05:18:02.395Z,0.20
2023-08-29T05:20:30.463Z,0.20
2023-08-29T05:22:58.397Z,0.40
2023-08-29T05:25:26.324Z,0.32
2023-08-29T05:27:54.230Z,0.45
2023-08-29T05:30:23.750Z,0.20
2023-08-29T05:32:51.733Z,0.73
2023-08-29T05:35:19.810Z,0.20
2023-08-29T05:37:47.741Z,0.20
2023-08-29T05:40:15.844Z,0.80
2023-08-29T05:42:43.754Z,0.68
2023-08-29T05:45:12.291Z,0.22
2023-08-29T05:47:41.631Z,0.40
2023-08-29T05:50:10.424Z,0.52
2023-08-29T05:52:38.747Z,0.95
2023-08-29T05:55:07.958Z,0.40
2023-08-29T05:57:35.897Z,0.55
2023-08-29T06:00:06.426Z,0.40
2023-08-29T06:02:34.921Z,0.40
2023-08-29T06:05:07.437Z,0.20
2023-08-29T06:07:35.451Z,0.20
2023-08-29T06:10:03.776Z,0.20
2023-08-29T06:12:31.733Z,0.20
2023-08-29T06:14:59.672Z,0.30
2023-08-29T06:17:28.074Z,0.20
2023-08-29T06:19:55.993Z,0.30
2023-08-29T06:22:26.457Z,0.20
2023-08-29T06:24:56.079Z,0.43
2023-08-29T06:27:24.106Z,0.33
2023-08-29T06:29:52.014Z,0.30
2023-08-29T06:32:20.114Z,0.20
2023-08-29T06:34:48.023Z,0.33
2023-08-29T06:37:17.519Z,0.30
2023-08-29T06:39:46.804Z,0.40
2023-08-29T06:42:14.723Z,0.20
2023-08-29T06:44:42.650Z,0.30
2023-08-29T07:07:15.906Z,1.50
2023-08-29T07:09:44.527Z,1.13
2023-08-29T07:12:12.458Z,1.45
2023-08-29T07:14:40.388Z,1.10
2023-08-29T07:17:10.526Z,1.08
2023-08-29T07:19:39.776Z,1.05
2023-08-29T07:22:22.790Z,1.45
2023-08-29T07:24:53.960Z,1.20
2023-08-29T07:27:22.189Z,1.40
2023-08-29T07:29:50.123Z,1.40
2023-08-29T07:32:18.882Z,1.10
2023-08-29T07:34:46.821Z,1.10
2023-08-29T07:37:14.788Z,1.45
2023-08-29T07:39:42.698Z,1.10
2023-08-29T07:42:11.992Z,1.40
2023-08-29T07:44:39.897Z,1.40
2023-08-29T07:47:15.756Z,1.60
2023-08-29T07:49:44.376Z,1.50
2023-08-29T07:52:12.564Z,2.35
2023-08-29T07:54:40.731Z,2.08
2023-08-29T07:57:08.712Z,2.70
2023-08-29T07:59:38.009Z,2.10
2023-08-29T08:02:07.055Z,2.08
2023-08-29T08:04:34.980Z,3.50
2023-08-29T08:07:02.939Z,2.50
2023-08-29T08:09:30.894Z,2.65
2023-08-29T08:11:58.851Z,2.80
2023-08-29T08:14:26.763Z,2.60
2023-08-29T08:16:56.072Z,2.80
2023-08-29T08:19:24.055Z,2.80
2023-08-29T08:21:52.722Z,2.88
2023-08-29T08:24:20.708Z,3.58
2023-08-29T08:26:48.669Z,3.20
2023-08-29T08:29:16.586Z,3.00
2023-08-29T08:31:44.542Z,3.40
2023-08-29T08:34:13.976Z,3.58
2023-08-29T08:36:41.903Z,3.90
2023-08-29T08:39:09.840Z,4.78
2023-08-29T08:41:39.408Z,3.88
2023-08-29T08:44:10.621Z,5.97
2023-08-29T08:46:39.198Z,4.20
2023-08-29T08:49:07.762Z,4.70
2023-08-29T08:51:39.861Z,6.20
2023-08-29T08:54:09.003Z,6.55
2023-08-29T08:56:37.936Z,7.75
2023-08-29T08:59:06.817Z,8.20
2023-08-29T09:01:35.338Z,8.30
2023-08-29T09:04:04.241Z,10.40
2023-08-29T09:06:32.567Z,11.95
2023-08-29T09:09:20.200Z,12.50
2023-08-29T09:11:55.080Z,11.00
2023-08-29T09:14:23.659Z,10.52
2023-08-29T09:16:55.300Z,10.85
2023-08-29T09:19:24.022Z,12.68
2023-08-29T09:21:52.251Z,25.13
2023-08-29T09:24:33.304Z,23.98
2023-08-29T09:27:01.350Z,34.90
2023-08-29T09:29:32.423Z,41.70
2023-08-29T09:32:00.820Z,51.47
2023-08-29T09:34:30.368Z,57.65
2023-08-29T09:36:59.624Z,60.72
2023-08-29T09:39:29.167Z,59.90
2023-08-29T09:42:02.529Z,69.57
2023-08-29T09:44:30.901Z,63.50
2023-08-29T09:46:58.912Z,64.07
2023-08-29T09:49:33.507Z,67.07
2023-08-29T09:52:04.178Z,65.85
2023-08-29T09:54:35.313Z,65.07
2023-08-29T09:57:07.923Z,66.72
2023-08-29T09:59:40.476Z,66.93
2023-08-29T10:02:12.175Z,61.35
2023-08-29T10:04:44.892Z,63.78
2023-08-29T10:07:16.974Z,62.22
2023-08-29T10:09:46.699Z,67.88
2023-08-29T10:12:15.017Z,63.95
2023-08-29T10:14:45.182Z,67.72
2023-08-29T10:17:29.583Z,64.75
2023-08-29T10:20:00.633Z,65.97
2023-08-29T10:22:31.802Z,62.22
2023-08-29T10:25:03.684Z,61.65
2023-08-29T10:27:31.983Z,64.20
2023-08-29T10:30:00.163Z,63.95
2023-08-29T10:32:29.651Z,64.45
2023-08-29T10:34:58.798Z,63.42
2023-08-29T10:37:30.177Z,63.17
2023-08-29T10:40:12.456Z,61.33
2023-08-29T10:42:54.499Z,65.57
2023-08-29T10:45:23.774Z,62.65
2023-08-29T10:47:53.184Z,62.63
2023-08-29T10:50:25.515Z,63.05
2023-08-29T10:52:57.588Z,63.58
2023-08-29T10:55:29.440Z,65.03
2023-08-29T10:57:59.661Z,64.78
2023-08-29T11:00:36.457Z,69.82
2023-08-29T11:03:04.795Z,73.80
2023-08-29T11:05:33.223Z,71.90
2023-08-29T11:08:20.669Z,74.78
2023-08-29T11:11:14.942Z,75.07
2023-08-29T11:14:02.414Z,71.13
2023-08-29T11:16:31.793Z,67.82
2023-08-29T11:19:13.255Z,69.80
2023-08-29T11:21:41.638Z,67.45
2023-08-29T11:24:16.439Z,66.95
2023-08-29T11:26:48.303Z,72.45
2023-08-29T11:29:17.280Z,64.00
2023-08-29T11:31:47.432Z,65.82
2023-08-29T11:34:18.508Z,66.95
2023-08-29T11:36:49.352Z,65.13
2023-08-29T11:39:19.908Z,67.20
2023-08-29T11:41:55.739Z,67.13
2023-08-29T11:44:55.521Z,63.67
2023-08-29T11:47:21.591Z,65.20
2023-08-29T11:49:50.834Z,61.33
2023-08-29T11:52:18.971Z,67.05
2023-08-29T11:54:49.290Z,62.53
2023-08-29T11:57:19.137Z,59.15
2023-08-29T11:59:48.621Z,66.40
2023-08-29T12:02:20.004Z,58.10
2023-08-29T12:04:49.339Z,54.97
2023-08-29T12:07:18.599Z,58.70
2023-08-29T12:09:48.375Z,57.63
2023-08-29T12:12:31.906Z,62.80
2023-08-29T12:15:00.899Z,61.25
2023-08-29T12:17:39.433Z,57.17
2023-08-29T12:20:30.816Z,54.22
2023-08-29T12:22:59.080Z,54.45
2023-08-29T12:25:28.080Z,54.58
2023-08-29T12:27:58.210Z,53.95
2023-08-29T12:30:27.008Z,54.92
2023-08-29T12:32:55.223Z,50.40
2023-08-29T12:35:23.388Z,50.38
2023-08-29T12:37:51.357Z,49.67
2023-08-29T12:40:19.380Z,54.95
2023-08-29T12:42:50.278Z,53.10
2023-08-29T12:45:20.904Z,54.13
2023-08-29T12:47:50.438Z,56.05
2023-08-29T12:50:19.226Z,50.55
2023-08-29T12:52:47.198Z,50.50
2023-08-29T12:55:15.316Z,53.67
2023-08-29T12:57:44.249Z,49.30
2023-08-29T13:00:12.953Z,49.22
2023-08-29T13:02:42.449Z,47.80
2023-08-29T13:05:10.729Z,48.97
2023-08-29T13:07:38.673Z,49.15
2023-08-29T13:10:07.310Z,50.85
2023-08-29T13:12:35.887Z,48.63
2023-08-29T13:15:06.550Z,48.70
2023-08-29T13:17:34.789Z,51.42
2023-08-29T13:20:04.145Z,50.95
2023-08-29T13:22:32.417Z,51.65
2023-08-29T13:25:00.418Z,50.63
2023-08-29T13:27:28.381Z,51.08
2023-08-29T13:29:56.296Z,50.80
2023-08-29T13:32:24.253Z,51.97
2023-08-29T13:34:52.239Z,49.25
2023-08-29T13:37:21.661Z,53.22
2023-08-29T13:39:57.049Z,56.92
2023-08-29T13:42:25.269Z,56.35
2023-08-29T13:44:56.866Z,52.63
2023-08-29T13:47:25.014Z,53.10
2023-08-29T13:49:54.470Z,50.45
2023-08-29T13:52:23.780Z,51.28
2023-08-29T13:54:51.814Z,52.83
2023-08-29T13:57:19.761Z,54.35
2023-08-29T13:59:47.671Z,52.22
2023-08-29T14:02:15.599Z,51.88
2023-08-29T14:04:43.560Z,59.85
2023-08-29T14:07:11.936Z,53.83
2023-08-29T14:09:41.217Z,53.85
2023-08-29T14:12:10.192Z,53.50
2023-08-29T14:14:38.156Z,69.47
2023-08-29T14:17:07.104Z,53.83
2023-08-29T14:19:36.426Z,53.67
2023-08-29T14:22:05.498Z,52.38
2023-08-29T14:24:33.547Z,53.85
2023-08-29T14:27:02.845Z,53.15
2023-08-29T14:29:31.494Z,51.80
2023-08-29T14:31:59.485Z,53.65
2023-08-29T14:34:27.540Z,53.35
2023-08-29T14:36:55.918Z,53.70
2023-08-29T14:39:23.870Z,53.05
2023-08-29T14:41:52.124Z,62.53
2023-08-29T14:44:21.488Z,51.55
2023-08-29T14:46:49.703Z,67.18
2023-08-29T14:49:17.670Z,51.45
2023-08-29T14:51:46.154Z,48.70
2023-08-29T14:54:14.113Z,49.95
2023-08-29T14:56:42.690Z,51.90
2023-08-29T14:59:10.603Z,51.92
2023-08-29T15:01:42.079Z,50.78
2023-08-29T15:04:11.140Z,51.92
2023-08-29T15:06:39.280Z,50.83
2023-08-29T15:09:09.065Z,51.13
2023-08-29T15:11:37.358Z,50.60
2023-08-29T15:14:06.656Z,50.58
2023-08-29T15:16:36.169Z,50.53
2023-08-29T15:19:05.829Z,50.92
2023-08-29T15:21:33.785Z,52.17
2023-08-29T15:24:01.727Z,52.72
2023-08-29T15:26:29.644Z,54.63
2023-08-29T15:28:58.227Z,52.75
2023-08-29T15:31:26.247Z,52.95
2023-08-29T15:33:54.217Z,53.40
2023-08-29T15:36:26.473Z,54.40
2023-08-29T15:38:54.497Z,55.22
2023-08-29T15:41:24.076Z,55.10
2023-08-29T15:43:52.005Z,54.90
2023-08-29T15:46:20.506Z,56.20
2023-08-29T15:48:48.459Z,57.72
2023-08-29T15:51:17.131Z,55.72
2023-08-29T15:53:46.493Z,56.05
2023-08-29T15:56:14.482Z,55.47
2023-08-29T15:58:43.067Z,56.40
2023-08-29T16:01:12.063Z,17.80
2023-08-29T16:03:40.170Z,18.00
2023-08-29T16:06:08.242Z,19.40
2023-08-29T16:08:36.999Z,18.30
2023-08-29T16:11:06.289Z,17.60
2023-08-29T16:13:34.225Z,18.38
2023-08-29T16:16:02.185Z,19.27
2023-08-29T16:18:30.074Z,16.25
2023-08-29T16:20:58.022Z,16.20
2023-08-29T16:23:25.950Z,17.35
2023-08-29T16:25:53.996Z,17.08
2023-08-29T16:28:24.386Z,19.23
2023-08-29T16:30:52.508Z,17.23
2023-08-29T16:33:20.516Z,17.05
2023-08-29T16:35:49.215Z,17.02
2023-08-29T16:38:17.175Z,17.35
2023-08-29T16:40:45.078Z,18.08
2023-08-29T16:43:12.999Z,16.67
2023-08-29T16:45:42.289Z,17.10
2023-08-29T16:48:10.632Z,17.13
2023-08-29T16:50:39.888Z,16.70
2023-08-29T16:53:08.619Z,17.13
2023-08-29T16:55:36.563Z,16.73
2023-08-29T16:58:05.064Z,17.23
2023-08-29T17:00:33.457Z,17.63
2023-08-29T17:03:09.255Z,17.65
2023-08-29T17:05:39.483Z,17.05
2023-08-29T17:08:09.064Z,16.90
2023-08-29T17:10:37.862Z,16.70
2023-08-29T17:13:05.868Z,15.45
2023-08-29T17:15:33.817Z,15.70
2023-08-29T17:18:03.312Z,14.98
2023-08-29T17:20:31.347Z,17.08
2023-08-29T17:22:59.296Z,16.38
2023-08-29T17:25:29.313Z,16.30
2023-08-29T17:27:57.255Z,16.00
2023-08-29T17:30:25.519Z,16.35
2023-08-29T17:32:53.581Z,16.30
2023-08-29T17:35:22.885Z,16.50
2023-08-29T17:37:50.889Z,16.77
2023-08-29T17:40:18.957Z,16.30
2023-08-29T17:42:46.893Z,16.42
2023-08-29T17:45:15.246Z,16.88
2023-08-29T17:47:43.226Z,15.85
2023-08-29T17:50:12.173Z,16.20
2023-08-29T17:52:41.554Z,15.50
2023-08-29T17:55:09.830Z,15.65
2023-08-29T17:57:37.761Z,16.52
2023-08-29T18:00:07.030Z,16.40
2023-08-29T18:02:35.020Z,16.70
2023-08-29T18:05:03.030Z,16.48
2023-08-29T18:07:30.984Z,15.70
2023-08-29T18:10:12.159Z,16.00
2023-08-29T18:12:40.642Z,16.50
2023-08-29T18:15:10.173Z,16.40
2023-08-29T18:17:38.716Z,15.80
2023-08-29T18:20:08.219Z,16.55
2023-08-29T18:22:36.879Z,16.20
2023-08-29T18:25:05.415Z,16.70
2023-08-29T18:27:34.741Z,16.70
2023-08-29T18:30:03.823Z,16.92
2023-08-29T18:32:32.976Z,15.90
2023-08-29T18:35:01.164Z,16.00
2023-08-29T18:37:29.372Z,16.13
2023-08-29T18:39:57.851Z,15.63
2023-08-29T18:42:25.899Z,15.80
2023-08-29T18:44:55.189Z,16.40
2023-08-29T18:47:23.158Z,16.50
2023-08-29T18:49:51.158Z,17.00
2023-08-29T18:52:20.680Z,15.45
2023-08-29T18:54:48.605Z,14.75
2023-08-29T18:57:16.550Z,15.20
2023-08-29T18:59:44.674Z,14.85
2023-08-29T19:02:14.230Z,14.98
2023-08-29T19:04:44.032Z,16.55
2023-08-29T19:07:12.067Z,14.80
2023-08-29T19:09:40.282Z,14.60
2023-08-29T19:12:08.476Z,14.45
2023-08-29T19:14:36.862Z,14.10
2023-08-29T19:17:05.317Z,13.25
2023-08-29T19:19:34.608Z,13.77
2023-08-29T19:22:02.640Z,13.80
2023-08-29T19:24:30.618Z,15.20
2023-08-29T19:26:58.581Z,14.90
2023-08-29T19:29:26.502Z,14.45
2023-08-29T19:31:54.403Z,14.27
2023-08-29T19:34:22.338Z,13.38
2023-08-29T19:36:51.591Z,12.35
2023-08-29T19:39:21.785Z,12.48
2023-08-29T19:41:49.698Z,13.85
2023-08-29T19:44:19.038Z,15.20
2023-08-29T19:46:47.395Z,15.40
2023-08-29T19:49:16.107Z,14.30
2023-08-29T19:51:44.663Z,13.27
2023-08-29T19:54:14.212Z,14.10
2023-08-29T19:56:42.212Z,13.75
2023-08-29T19:59:10.271Z,13.80
2023-08-29T20:01:38.211Z,13.20
2023-08-29T20:04:06.846Z,12.30
2023-08-29T20:06:34.806Z,12.05
2023-08-29T20:09:02.776Z,12.10
2023-08-29T20:11:32.083Z,13.05
2023-08-29T20:14:00.157Z,11.68
2023-08-29T20:16:28.154Z,11.77
2023-08-29T20:18:56.464Z,12.48
2023-08-29T20:21:24.437Z,11.85
2023-08-29T20:24:01.547Z,11.27
2023-08-29T20:26:32.446Z,10.68
2023-08-29T20:29:01.141Z,11.68
2023-08-29T20:31:29.343Z,12.40
2023-08-29T20:33:57.259Z,12.07
2023-08-29T20:36:25.195Z,11.98
2023-08-29T20:38:53.100Z,12.40
2023-08-29T20:41:21.370Z,12.70
2023-08-29T20:43:50.763Z,12.18
2023-08-29T20:46:18.918Z,13.18
2023-08-29T20:48:52.176Z,14.15
2023-08-29T20:51:22.507Z,14.05
2023-08-29T20:53:51.096Z,12.77
2023-08-29T20:56:19.037Z,12.35
2023-08-29T20:58:47.154Z,13.18
2023-08-29T21:01:16.562Z,12.60
2023-08-29T21:03:44.878Z,13.90
2023-08-29T21:06:12.941Z,14.02
2023-08-29T21:08:40.861Z,14.23
2023-08-29T21:11:08.844Z,14.00
2023-08-29T21:13:37.117Z,13.30
2023-08-29T21:16:05.319Z,13.02
2023-08-29T21:18:34.644Z,13.65
2023-08-29T21:21:04.718Z,14.32
2023-08-29T21:23:34.666Z,14.18
2023-08-29T21:26:02.627Z,13.52
2023-08-29T21:28:31.313Z,13.55
2023-08-29T21:30:59.967Z,13.32
2023-08-29T21:33:27.875Z,13.75
2023-08-29T21:35:57.130Z,13.48
2023-08-29T21:38:25.058Z,13.75
2023-08-29T21:40:53.114Z,14.45
2023-08-29T21:43:22.559Z,14.70
2023-08-29T21:45:54.932Z,14.02
2023-08-29T21:48:25.395Z,14.07
2023-08-29T21:50:54.258Z,13.90
2023-08-29T21:53:24.372Z,14.85
2023-08-29T21:55:53.562Z,14.77
2023-08-29T21:58:21.529Z,15.00
2023-08-29T22:00:51.931Z,14.60
2023-08-29T22:03:20.747Z,13.88
2023-08-29T22:05:48.761Z,13.32
2023-08-29T22:08:17.081Z,13.75
2023-08-29T22:10:46.406Z,13.25
2023-08-29T22:13:14.445Z,14.02
2023-08-29T22:15:42.603Z,14.80
2023-08-29T22:18:12.479Z,14.95
2023-08-29T22:20:40.856Z,14.43
2023-08-29T22:23:09.121Z,14.80
2023-08-29T22:25:37.524Z,13.77
2023-08-29T22:28:07.564Z,13.93
2023-08-29T22:30:35.893Z,13.93
2023-08-29T22:33:04.791Z,13.43
2023-08-29T22:35:32.899Z,13.27
2023-08-29T22:38:00.823Z,13.30
2023-08-29T22:40:28.761Z,13.88
2023-08-29T22:42:57.246Z,14.60
2023-08-29T22:45:26.694Z,14.60
2023-08-29T22:47:54.661Z,14.80
2023-08-29T22:50:22.658Z,14.50
2023-08-29T22:52:50.619Z,14.35
2023-08-29T22:55:19.958Z,14.38
2023-08-29T22:57:47.877Z,13.75
2023-08-29T23:00:16.941Z,14.38
2023-08-29T23:02:46.314Z,13.93
2023-08-29T23:05:14.304Z,13.93
2023-08-29T23:07:51.244Z,14.20
2023-08-29T23:10:19.511Z,14.40
2023-08-29T23:12:47.766Z,14.30
2023-08-29T23:15:16.326Z,13.82
2023-08-29T23:17:44.452Z,13.50
2023-08-29T23:20:14.419Z,13.48
2023-08-29T23:22:42.326Z,13.40
2023-08-29T23:25:12.060Z,13.10
2023-08-29T23:27:40.021Z,13.50
2023-08-29T23:30:11.439Z,13.20
2023-08-29T23:32:40.385Z,14.35
2023-08-29T23:35:09.181Z,14.77
2023-08-29T23:37:38.467Z,14.75
2023-08-29T23:40:08.339Z,15.00
2023-08-29T23:42:36.416Z,14.30
2023-08-29T23:45:05.131Z,13.40
2023-08-29T23:47:33.148Z,13.60
2023-08-29T23:50:01.121Z,13.68
2023-08-29T23:52:29.046Z,13.73
2023-08-29T23:54:58.324Z,13.05
2023-08-29T23:57:26.457Z,13.68
2023-08-29T23:59:54.380Z,13.80
